Forest fire From: 18-06-2018 11:00 Until: 19-06-2018 10:14 warning for: Forest fire Level: Yellow info button
suomi:
Metsäpalovaroitus on voimassa.

svenska:
Varning för skogsbrand gäller.

english:
A forest fire warning is in force. 


Thunder radar more information blitzortung!


Löydät sääaseman tiedot myös:

European Weather Network

Finland Weather Exchange

Weather Underground

AWEKAS



Weather Underground säähistoriasivu

Päivittäin yhteenveto Elokuu 13, 2017 Yksiköt:  Englantilaiset    Metriset   Molemmat
« Edellinen Päivä
Seuraava Päivä »
Päivittäin Viikoittain Kuukausittain Vuosittain Mukautettu
  Korkea: Matala: Keskiarvo:
Lämpötila: TemperatureC °F 10.3 °F 14.4 °F
Kastepiste: DewpointC °F 8.4 °F 12.6 °F
Kosteus: Humidity % 77 % 88 %
Tuulen nopeus: WindSpeedKMH mph 0.0 mph 0 mph
Tuulenpuuska: WindSpeedGustKMH mph - -
Tuuli:- - North
Ilmanpaine: PressurehPa in 996.5 in -
Sade: 1.8 in    
Historical Graphs
 
 
Taulukkotiedot Elokuu 13, 2017
Aika Lämpötila Kastepiste Ilmanpaine Tuuli Tuulen nopeus Tuulenpuuska Kosteus Sademäärä (tunneittain)
TemperatureC °F DewpointC °F PressurehPa in Calm     Humidity % HourlyPrecipMM in
00:00 16.7 °F 14.5 °F 999.5 in Calm     87 % 0.0 in
00:15 16.6 °F 14.4 °F 999.2 in Calm     87 % 0.0 in
00:30 16.5 °F 14.3 °F 999.5 in Calm     87 % 0.0 in
00:45 16.3 °F 14.3 °F 999.5 in Calm     88 % 0.0 in
01:00 16.2 °F 14.2 °F 999.2 in Calm     88 % 0.0 in
01:15 16.2 °F 14.4 °F 999.2 in Calm     89 % 0.0 in
01:30 16.1 °F 14.2 °F 999.2 in Calm     89 % 0.0 in
01:45 15.8 °F 14.2 °F 998.9 in Calm     90 % 0.0 in
02:00 15.7 °F 14.3 °F 998.5 in Calm     91 % 0.0 in
02:15 15.7 °F 14.3 °F 998.5 in Calm     91 % 0.0 in
02:30 15.8 °F 14.5 °F 998.2 in Calm     92 % 0.0 in
02:45 15.7 °F 14.4 °F 998.2 in Calm     92 % 0.0 in
03:00 15.5 °F 14.4 °F 998.2 in Calm     93 % 0.0 in
03:15 15.5 °F 14.5 °F 998.2 in Calm     94 % 0.0 in
03:30 15.5 °F 14.5 °F 997.9 in Calm     94 % 0.5 in
03:45 15.4 °F 14.6 °F 997.9 in Calm     95 % 1.5 in
04:00 15.4 °F 14.6 °F 997.5 in Calm     95 % 1.5 in
04:15 15.3 °F 14.7 °F 997.5 in Calm     96 % 1.5 in
04:30 15.3 °F 14.7 °F 997.5 in Calm     96 % 0.5 in
04:45 15.3 °F 14.7 °F 997.5 in Calm     96 % 0.0 in
05:00 15.3 °F 14.6 °F 997.2 in Calm     96 % 0.0 in
05:15 15.2 °F 14.5 °F 997.2 in Calm     96 % 0.0 in
05:30 15.2 °F 14.7 °F 997.2 in Calm     97 % 0.0 in
05:45 15.4 °F 15.0 °F 997.2 in Calm     97 % 0.0 in
06:00 15.4 °F 15.0 °F 997.2 in Calm     97 % 0.0 in
06:30 15.4 °F 15.0 °F 996.8 in Calm     97 % 0.3 in
06:45 15.4 °F 14.9 °F 996.5 in Calm     97 % 0.3 in
07:00 15.4 °F 14.9 °F 996.5 in Calm     97 % 0.3 in
07:15 15.4 °F 14.9 °F 996.5 in Calm     97 % 0.3 in
07:30 15.4 °F 14.9 °F 996.5 in Calm     97 % 0.0 in
07:45 15.3 °F 14.9 °F 996.8 in Calm     97 % 0.0 in
08:00 15.3 °F 14.9 °F 996.8 in Calm     97 % 0.0 in
08:15 15.3 °F 14.8 °F 997.2 in Calm     97 % 0.0 in
08:30 15.1 °F 14.4 °F 997.2 in Calm     96 % 0.0 in
08:45 14.7 °F 13.9 °F 997.5 in Calm     95 % 0.0 in
09:00 14.7 °F 13.9 °F 997.5 in Calm     95 % 0.0 in
09:15 14.7 °F 13.9 °F 997.2 in Calm     95 % 0.0 in
09:30 14.7 °F 13.9 °F 997.5 in Calm     95 % 0.0 in
09:45 15.1 °F 14.3 °F 997.5 in Calm     95 % 0.0 in
10:00 15.2 °F 14.3 °F 997.2 in Calm     94 % 0.0 in
10:15 15.3 °F 14.3 °F 997.5 in Calm     94 % 0.0 in
10:30 15.4 °F 14.5 °F 997.5 in Calm     94 % 0.0 in
10:45 15.7 °F 14.9 °F 997.5 in Calm     95 % 0.0 in
11:00 15.8 °F 14.9 °F 997.9 in Calm     94 % 0.0 in
11:15 15.9 °F 15.0 °F 998.2 in Calm     94 % 0.0 in
11:30 15.9 °F 14.5 °F 998.5 in Calm     91 % 0.0 in
11:45 15.6 °F 14.1 °F 998.9 in Calm     91 % 0.0 in
12:00 15.1 °F 13.6 °F 998.9 in Calm     91 % 0.0 in
12:15 14.4 °F 13.1 °F 999.5 in Calm     92 % 0.0 in
12:30 13.9 °F 12.8 °F 999.9 in Calm     93 % 0.0 in
12:45 13.9 °F 12.8 °F 999.9 in Calm     93 % 0.0 in
13:00 13.9 °F 12.6 °F 1000.2 in Calm     92 % 0.0 in
13:15 13.8 °F 12.5 °F 1000.6 in Calm     92 % 0.0 in
13:30 13.6 °F 12.2 °F 1000.9 in Calm     91 % 0.0 in
13:45 13.3 °F 11.8 °F 1001.2 in Calm     91 % 0.0 in
14:00 13.3 °F 11.6 °F 1001.6 in Calm     89 % 0.0 in
14:15 13.7 °F 11.8 °F 1001.6 in Calm     88 % 0.0 in
14:30 14.1 °F 11.9 °F 1001.9 in Calm     87 % 0.0 in
14:45 13.9 °F 11.8 °F 1001.9 in Calm     87 % 0.0 in
15:00 13.9 °F 11.5 °F 1002.3 in Calm     85 % 0.0 in
15:15 14.5 °F 11.5 °F 1002.3 in Calm     82 % 0.0 in
15:30 15.0 °F 11.2 °F 1002.3 in Calm     78 % 0.0 in
15:45 14.9 °F 11.9 °F 1002.6 in Calm     82 % 0.0 in
16:00 14.8 °F 11.8 °F 1002.6 in Calm     82 % 0.3 in
16:15 14.8 °F 11.4 °F 1002.9 in Calm     80 % 0.3 in
16:30 14.9 °F 11.3 °F 1002.9 in Calm     79 % 0.3 in
16:45 15.0 °F 11.4 °F 1003.3 in Calm     79 % 0.3 in
17:00 15.0 °F 11.2 °F 1003.3 in Calm     78 % 0.0 in
17:15 14.9 °F 10.9 °F 1003.6 in Calm     77 % 0.0 in
17:30 14.5 °F 11.1 °F 1003.6 in Calm     80 % 0.0 in
17:45 14.3 °F 11.2 °F 1003.6 in Calm     82 % 0.0 in
18:00 14.4 °F 11.0 °F 1003.6 in Calm     80 % 0.0 in
18:15 14.4 °F 10.6 °F 1003.9 in Calm     78 % 0.0 in
18:30 14.2 °F 10.6 °F 1003.9 in Calm     79 % 0.0 in
18:45 14.1 °F 10.7 °F 1004.3 in Calm     80 % 0.0 in
19:00 13.8 °F 10.6 °F 1004.3 in Calm     81 % 0.0 in
19:15 13.9 °F 10.7 °F 1004.6 in Calm     81 % 0.0 in
19:30 13.9 °F 10.9 °F 1004.6 in Calm     82 % 0.0 in
19:45 13.9 °F 11.1 °F 1004.6 in Calm     83 % 0.0 in
20:00 13.9 °F 10.7 °F 1005.0 in Calm     81 % 0.0 in
20:15 13.7 °F 10.3 °F 1005.0 in Calm     80 % 0.0 in
20:30 13.6 °F 10.4 °F 1005.3 in Calm     81 % 0.0 in
20:45 13.4 °F 10.4 °F 1005.3 in Calm     82 % 0.0 in
21:00 13.2 °F 10.3 °F 1005.6 in Calm     83 % 0.0 in
21:15 13.0 °F 10.4 °F 1005.6 in Calm     84 % 0.0 in
21:30 12.8 °F 10.4 °F 1006.0 in Calm     85 % 0.0 in
21:45 12.7 °F 10.0 °F 1006.0 in Calm     84 % 0.0 in
22:00 12.7 °F 10.0 °F 1006.3 in Calm     84 % 0.0 in
22:15 12.4 °F 9.6 °F 1006.7 in Calm     83 % 0.0 in
22:30 12.2 °F 9.6 °F 1007.0 in Calm     84 % 0.0 in
22:45 12.0 °F 9.6 °F 1007.0 in Calm     85 % 0.0 in
23:00 11.6 °F 8.9 °F 1007.3 in Calm     84 % 0.0 in
23:15 11.2 °F 8.7 °F 1007.3 in Calm     85 % 0.0 in
23:30 10.8 °F 8.5 °F 1007.7 in Calm     86 % 0.0 in
23:45 10.3 °F 8.4 °F 1007.7 in Calm   1.6 mph 88 % 0.0 in
Esan sääasema
Terveisin Weather Underground - 2.75 mb

Alkuperäinen skripti  Jim McMurry - jmcmurry@mwt.net Sovitettu myös templatelle  Wim van der Kuil - Leuven-Template.eu

Laitteet joita käytämme:

Sääasema
Davis VP2

Sääasemaohjelma
Cumulus

Sääaseman tietokone
Asus EeePC

Palveluntarjoaja
Suncomet

Davis VP2

Cumulus

Asus EeePC

Suncomet